Time;durP1;ratioP1;P1;durP2;ratioP2;P2;SDS_P1;SDS_P2;PMS_P1;PMS_P2;Temp;Humidity;BMP_temperature;BMP_pressure;BME280_temperature;BME280_humidity;BME280_pressure;Samples;Min_cycle;Max_cycle;Signal;HPM_P1;HPM_P2
2023/09/18 00:00:45;;;;;;;55.78;10.85;;;;;;;17.37;100.00;95627.56;4983678;28;20034;-72
2023/09/18 00:03:10;;;;;;;48.38;11.45;;;;;;;17.40;100.00;95623.69;4976816;28;20056;-72
2023/09/18 00:05:35;;;;;;;47.63;11.15;;;;;;;17.43;100.00;95624.13;4982500;28;20453;-71
2023/09/18 00:08:04;;;;;;;45.10;9.77;;;;;;;17.47;100.00;95625.41;4984814;28;20042;-71
2023/09/18 00:10:30;;;;;;;47.28;10.88;;;;;;;17.51;100.00;95615.22;4975359;28;20029;-71
2023/09/18 00:12:56;;;;;;;50.67;10.60;;;;;;;17.51;100.00;95612.56;4983631;28;20026;-72
2023/09/18 00:15:22;;;;;;;34.10;10.25;;;;;;;17.52;100.00;95622.19;4987835;28;20039;-71
2023/09/18 00:17:48;;;;;;;53.55;9.73;;;;;;;17.51;100.00;95620.53;4984106;28;20026;-71
2023/09/18 00:20:13;;;;;;;45.00;10.00;;;;;;;17.53;100.00;95633.66;4985363;28;20042;-71
2023/09/18 00:22:39;;;;;;;49.22;10.02;;;;;;;17.50;100.00;95632.22;4985927;28;20027;-71
2023/09/18 00:25:05;;;;;;;56.00;10.30;;;;;;;17.49;100.00;95630.56;4988264;28;20038;-72
2023/09/18 00:27:30;;;;;;;54.42;10.73;;;;;;;17.50;100.00;95626.03;4995929;28;20022;-71
2023/09/18 00:29:56;;;;;;;43.97;10.65;;;;;;;17.55;100.00;95623.63;4982808;28;20050;-71
2023/09/18 00:32:21;;;;;;;53.20;10.80;;;;;;;17.58;100.00;95618.78;4991147;28;20025;-71
2023/09/18 00:34:46;;;;;;;39.75;10.07;;;;;;;17.60;100.00;95622.06;4984275;28;20022;-71
2023/09/18 00:37:12;;;;;;;42.42;9.65;;;;;;;17.59;100.00;95631.06;4984417;28;20026;-71
2023/09/18 00:39:38;;;;;;;47.97;11.00;;;;;;;17.61;100.00;95634.38;4985260;28;20669;-71
2023/09/18 00:42:04;;;;;;;43.45;10.98;;;;;;;17.61;100.00;95638.88;4979634;28;20065;-71
2023/09/18 00:44:29;;;;;;;47.08;10.15;;;;;;;17.62;100.00;95635.22;4986615;28;20051;-71
2023/09/18 00:46:55;;;;;;;47.55;10.80;;;;;;;17.66;100.00;95633.81;4985075;28;20102;-71
2023/09/18 00:49:22;;;;;;;47.85;11.00;;;;;;;17.72;100.00;95641.03;4982286;28;20475;-71
2023/09/18 00:51:48;;;;;;;38.42;9.50;;;;;;;17.76;100.00;95644.97;4986109;28;20502;-71
2023/09/18 00:54:16;;;;;;;40.83;10.23;;;;;;;17.76;100.00;95649.50;4984271;28;20043;-70
2023/09/18 00:56:42;;;;;;;39.83;9.75;;;;;;;17.84;100.00;95659.19;4982970;28;20172;-71
2023/09/18 00:59:08;;;;;;;47.75;10.80;;;;;;;17.76;100.00;95666.28;4985140;28;20185;-71
2023/09/18 01:01:34;;;;;;;47.60;10.50;;;;;;;17.76;100.00;95668.13;4991805;28;20038;-71
2023/09/18 01:03:59;;;;;;;46.85;10.80;;;;;;;17.84;100.00;95675.19;4988646;28;20022;-71
2023/09/18 01:06:27;;;;;;;58.22;11.38;;;;;;;17.86;100.00;95667.81;4991910;28;20029;-71
2023/09/18 01:08:54;;;;;;;43.65;10.27;;;;;;;17.87;100.00;95675.59;4988367;28;20026;-71
2023/09/18 01:11:46;;;;;;;61.28;12.07;;;;;;;17.87;100.00;95677.47;4989921;28;20034;-71
2023/09/18 01:14:21;;;;;;;51.42;10.75;;;;;;;17.94;100.00;95683.66;4984205;28;20023;-71
2023/09/18 01:17:05;;;;;;;46.92;10.13;;;;;;;18.54;100.00;95694.13;4986918;28;20037;-71
2023/09/18 01:19:45;;;;;;;53.83;10.38;;;;;;;19.22;100.00;95686.63;4985618;28;20222;-71
2023/09/18 01:22:16;;;;;;;48.50;9.90;;;;;;;19.75;100.00;95686.06;4988097;28;20031;-71
2023/09/18 01:24:42;;;;;;;45.08;9.85;;;;;;;20.09;100.00;95697.69;4986398;28;20019;-72
2023/09/18 01:27:14;;;;;;;46.42;9.45;;;;;;;20.20;100.00;95693.59;4985526;28;20019;-70
2023/09/18 01:29:39;;;;;;;44.55;10.02;;;;;;;20.24;100.00;95705.56;4985461;28;20023;-72
2023/09/18 01:32:05;;;;;;;43.97;10.13;;;;;;;20.21;100.00;95711.28;4986550;28;20030;-72
2023/09/18 01:34:41;;;;;;;43.13;9.82;;;;;;;20.17;100.00;95716.22;4981667;28;20552;-72
2023/09/18 01:37:09;;;;;;;44.42;9.10;;;;;;;20.22;100.00;95712.13;4983538;28;20058;-71
2023/09/18 01:39:36;;;;;;;43.00;9.55;;;;;;;20.27;100.00;95721.19;4985333;28;20048;-71
2023/09/18 01:42:05;;;;;;;45.35;9.15;;;;;;;20.31;100.00;95742.97;4986344;28;20075;-71
2023/09/18 01:44:31;;;;;;;42.42;9.48;;;;;;;20.31;100.00;95737.63;4988858;28;20046;-71
2023/09/18 01:47:03;;;;;;;50.10;9.80;;;;;;;20.32;100.00;95729.41;4984476;28;20050;-72
2023/09/18 01:49:30;;;;;;;41.08;9.77;;;;;;;20.33;100.00;95724.88;4986258;28;20045;-71
2023/09/18 01:51:56;;;;;;;39.10;9.38;;;;;;;20.36;100.00;95719.16;4982475;28;20035;-71
2023/09/18 01:54:23;;;;;;;33.42;9.35;;;;;;;20.31;100.00;95725.09;4986132;28;20031;-71
2023/09/18 01:56:48;;;;;;;40.50;9.45;;;;;;;20.24;100.00;95721.59;4991009;28;20029;-71
2023/09/18 01:59:14;;;;;;;36.05;8.80;;;;;;;20.27;100.00;95728.38;4984831;28;20022;-71
2023/09/18 02:01:39;;;;;;;41.67;10.38;;;;;;;20.25;100.00;95728.59;4981116;28;20022;-71
2023/09/18 02:04:05;;;;;;;41.92;9.82;;;;;;;20.30;100.00;95728.78;4977359;28;20022;-72
2023/09/18 02:06:30;;;;;;;40.78;9.23;;;;;;;20.44;100.00;95728.81;4986817;28;20026;-71
2023/09/18 02:08:56;;;;;;;37.20;9.52;;;;;;;20.63;100.00;95729.03;4984873;28;20053;-72
2023/09/18 02:11:21;;;;;;;38.00;8.77;;;;;;;20.72;100.00;95733.97;4988678;28;20112;-72
2023/09/18 02:13:47;;;;;;;48.20;10.02;;;;;;;20.68;100.00;95742.63;4978657;28;20688;-71
2023/09/18 02:16:12;;;;;;;42.60;9.25;;;;;;;20.58;100.00;95751.88;4982466;28;20026;-71
2023/09/18 02:18:37;;;;;;;47.03;10.00;;;;;;;20.47;100.00;95747.94;4984100;28;20023;-71
2023/09/18 02:21:03;;;;;;;32.33;9.23;;;;;;;20.35;100.00;95751.41;4983349;28;20031;-71
2023/09/18 02:23:28;;;;;;;44.45;9.23;;;;;;;20.25;100.00;95751.81;4973284;28;20026;-71
2023/09/18 02:25:58;;;;;;;32.13;9.75;;;;;;;20.17;100.00;95750.13;4985078;28;20054;-71
2023/09/18 02:28:23;;;;;;;43.22;10.02;;;;;;;20.12;100.00;95747.25;4984414;28;20014;-71
2023/09/18 02:30:49;;;;;;;36.55;9.23;;;;;;;20.07;100.00;95749.69;4988622;28;20540;-71
2023/09/18 02:33:15;;;;;;;39.72;8.73;;;;;;;20.02;100.00;95737.78;4982923;28;20661;-71
2023/09/18 02:35:43;;;;;;;44.00;10.07;;;;;;;19.97;100.00;95726.84;4989137;28;20022;-71
2023/09/18 02:38:08;;;;;;;44.47;10.23;;;;;;;19.92;100.00;95729.28;4990679;28;20028;-71
2023/09/18 02:40:33;;;;;;;42.22;9.43;;;;;;;19.91;100.00;95722.31;4983969;28;20146;-72
2023/09/18 02:42:59;;;;;;;37.15;10.05;;;;;;;19.90;100.00;95710.78;4989765;28;20026;-72
2023/09/18 02:45:24;;;;;;;38.58;9.05;;;;;;;19.86;100.00;95714.84;4978795;28;20055;-72
2023/09/18 02:47:50;;;;;;;29.55;8.13;;;;;;;19.81;100.00;95714.63;4984912;28;20018;-72
2023/09/18 02:50:15;;;;;;;42.58;9.73;;;;;;;19.76;100.00;95709.88;4985652;28;20027;-72
2023/09/18 02:52:41;;;;;;;32.28;8.63;;;;;;;19.73;100.00;95709.47;4981697;28;20030;-72
2023/09/18 02:55:07;;;;;;;40.85;9.43;;;;;;;19.69;100.00;95700.22;4980834;28;20029;-72
2023/09/18 02:57:32;;;;;;;40.45;9.35;;;;;;;19.60;100.00;95694.22;4992445;28;20033;-72
2023/09/18 02:59:58;;;;;;;32.53;8.40;;;;;;;19.53;100.00;95686.19;4985902;28;20043;-72
2023/09/18 03:02:23;;;;;;;34.35;9.00;;;;;;;19.50;100.00;95677.72;4980583;28;20510;-72
2023/09/18 03:04:49;;;;;;;40.60;9.90;;;;;;;19.42;100.00;95663.53;4982641;28;20074;-72
2023/09/18 03:07:16;;;;;;;45.00;9.98;;;;;;;19.39;100.00;95653.25;4984774;28;20037;-72
2023/09/18 03:09:41;;;;;;;34.28;9.60;;;;;;;19.35;100.00;95654.69;4981537;28;20022;-72
2023/09/18 03:12:07;;;;;;;32.78;9.48;;;;;;;19.29;100.00;95660.78;4985155;28;20075;-72
2023/09/18 03:14:32;;;;;;;35.97;9.18;;;;;;;19.33;100.00;95673.56;4984753;28;20026;-72
2023/09/18 03:16:58;;;;;;;40.13;9.60;;;;;;;19.26;100.00;95667.38;4983613;28;20027;-71
2023/09/18 03:19:24;;;;;;;32.15;8.55;;;;;;;19.15;100.00;95660.75;4985556;28;20027;-71
2023/09/18 03:21:50;;;;;;;32.50;8.90;;;;;;;19.12;100.00;95655.81;4984277;28;20034;-72
2023/09/18 03:24:15;;;;;;;44.25;9.10;;;;;;;19.09;100.00;95650.03;4984550;28;20023;-72
2023/09/18 03:26:41;;;;;;;35.17;8.60;;;;;;;19.04;100.00;95656.78;4987718;28;20042;-72
2023/09/18 03:29:06;;;;;;;38.05;10.10;;;;;;;19.04;100.00;95666.59;4987076;28;20506;-72
2023/09/18 03:31:31;;;;;;;43.50;10.52;;;;;;;19.00;100.00;95647.50;4984612;28;20095;-72
2023/09/18 03:33:57;;;;;;;29.23;8.93;;;;;;;18.96;100.00;95656.06;4989464;28;20022;-72
2023/09/18 03:36:25;;;;;;;31.80;9.60;;;;;;;18.94;100.00;95666.13;4989891;28;20844;-71
2023/09/18 03:38:50;;;;;;;34.72;9.25;;;;;;;18.92;100.00;95654.81;4991302;28;20136;-71
2023/09/18 03:41:16;;;;;;;32.15;8.27;;;;;;;18.90;100.00;95658.50;4989369;28;20046;-71
2023/09/18 03:43:41;;;;;;;28.05;8.18;;;;;;;18.91;100.00;95667.31;4993017;28;20041;-71
2023/09/18 03:46:07;;;;;;;31.77;8.60;;;;;;;18.91;100.00;95651.31;4991312;28;20046;-71
2023/09/18 03:48:37;;;;;;;30.73;8.98;;;;;;;18.88;100.00;95655.19;4990404;28;20035;-71
2023/09/18 03:51:06;;;;;;;37.28;9.90;;;;;;;18.83;100.00;95649.63;4992877;28;20426;-71
2023/09/18 03:53:34;;;;;;;29.45;9.05;;;;;;;18.80;100.00;95652.69;4989660;28;20041;-72
2023/09/18 03:56:00;;;;;;;35.88;9.88;;;;;;;18.80;100.00;95651.88;4999151;28;20086;-71
2023/09/18 03:58:26;;;;;;;31.52;9.43;;;;;;;18.74;100.00;95651.59;4991785;28;20058;-72
2023/09/18 04:00:52;;;;;;;30.98;9.27;;;;;;;18.73;100.00;95655.28;4982066;28;20501;-72
2023/09/18 04:03:18;;;;;;;31.80;9.80;;;;;;;18.73;100.00;95641.16;4976460;28;20103;-72
2023/09/18 04:05:43;;;;;;;38.40;10.00;;;;;;;18.68;100.00;95643.56;4992520;28;20030;-73
2023/09/18 04:08:09;;;;;;;35.63;9.02;;;;;;;18.65;100.00;95643.94;4992543;28;20639;-71
2023/09/18 04:10:34;;;;;;;35.95;10.05;;;;;;;18.66;100.00;95642.94;4991610;28;20053;-71
2023/09/18 04:13:00;;;;;;;28.42;9.15;;;;;;;18.67;100.00;95644.56;4987151;28;20487;-71
2023/09/18 04:15:27;;;;;;;33.38;9.35;;;;;;;18.66;100.00;95641.09;4989164;28;20060;-71
2023/09/18 04:17:53;;;;;;;31.15;9.55;;;;;;;18.68;100.00;95646.22;4986994;28;20026;-72
2023/09/18 04:20:18;;;;;;;28.10;9.23;;;;;;;18.67;100.00;95641.91;4992706;28;20023;-71
2023/09/18 04:22:49;;;;;;;43.47;11.40;;;;;;;18.67;100.00;95634.75;4989861;28;20101;-71
2023/09/18 04:25:14;;;;;;;27.02;8.48;;;;;;;18.67;100.00;95641.91;4991039;28;20442;-72
2023/09/18 04:27:40;;;;;;;34.92;9.90;;;;;;;18.68;100.00;95643.56;4984167;28;20054;-71
2023/09/18 04:30:08;;;;;;;30.58;9.52;;;;;;;18.71;100.00;95653.84;4991789;28;20030;-71
2023/09/18 04:32:37;;;;;;;30.58;8.73;;;;;;;18.72;100.00;95645.66;4992490;28;20045;-71
2023/09/18 04:35:04;;;;;;;34.20;9.13;;;;;;;18.70;100.00;95646.88;4990856;28;20031;-71
2023/09/18 04:37:30;;;;;;;33.92;9.75;;;;;;;18.66;100.00;95640.25;4991568;28;20064;-71
2023/09/18 04:39:58;;;;;;;25.42;9.93;;;;;;;18.67;100.00;95644.56;4988808;28;20086;-71
2023/09/18 04:42:24;;;;;;;38.72;10.70;;;;;;;18.69;100.00;95642.56;4991089;28;20109;-71
2023/09/18 04:44:49;;;;;;;31.73;9.20;;;;;;;18.64;100.00;95640.47;4977272;28;20089;-71
2023/09/18 04:47:15;;;;;;;38.28;9.48;;;;;;;18.61;100.00;95635.53;4990516;28;20049;-71
2023/09/18 04:49:40;;;;;;;33.08;9.73;;;;;;;18.62;100.00;95615.84;4990948;28;20034;-71
2023/09/18 04:52:06;;;;;;;32.90;8.90;;;;;;;18.61;100.00;95614.22;4989606;28;20030;-71
2023/09/18 04:54:31;;;;;;;30.10;9.95;;;;;;;18.58;100.00;95622.59;4991683;28;20030;-71
2023/09/18 04:56:57;;;;;;;37.15;9.20;;;;;;;18.55;100.00;95618.47;4992583;28;20027;-71
2023/09/18 04:59:22;;;;;;;36.13;8.77;;;;;;;18.52;100.00;95629.53;4978294;28;20030;-71
2023/09/18 05:01:47;;;;;;;38.45;9.57;;;;;;;18.51;100.00;95638.53;4991475;28;20037;-71
2023/09/18 05:04:14;;;;;;;27.48;8.82;;;;;;;18.51;100.00;95643.88;4981250;28;20104;-71
2023/09/18 05:06:40;;;;;;;31.58;9.35;;;;;;;18.49;100.00;95645.91;4986614;28;20038;-71
2023/09/18 05:09:05;;;;;;;29.90;9.70;;;;;;;18.46;100.00;95648.97;4982074;28;20109;-71
2023/09/18 05:11:31;;;;;;;33.38;8.93;;;;;;;18.45;100.00;95649.94;4979570;28;20057;-71
2023/09/18 05:13:56;;;;;;;37.05;9.50;;;;;;;18.38;100.00;95633.94;4990374;28;20055;-72
2023/09/18 05:16:22;;;;;;;49.13;10.30;;;;;;;18.39;100.00;95637.41;4986464;28;20462;-72
2023/09/18 05:18:47;;;;;;;38.30;10.60;;;;;;;18.37;100.00;95634.94;4990457;28;20049;-72
2023/09/18 05:21:13;;;;;;;26.85;8.77;;;;;;;18.37;100.00;95623.44;4987493;28;20084;-72
2023/09/18 05:23:38;;;;;;;34.28;9.38;;;;;;;18.32;100.00;95632.84;4990656;28;20031;-72
2023/09/18 05:26:04;;;;;;;33.95;8.82;;;;;;;18.32;100.00;95637.34;4985414;28;20050;-71
2023/09/18 05:28:30;;;;;;;36.55;10.00;;;;;;;18.32;100.00;95646.16;4987353;28;20142;-72
2023/09/18 05:30:55;;;;;;;40.60;9.93;;;;;;;18.32;100.00;95640.84;4981140;28;20050;-71
2023/09/18 05:33:21;;;;;;;30.08;10.10;;;;;;;18.32;100.00;95640.00;4972371;28;20037;-72
2023/09/18 05:35:46;;;;;;;39.45;9.60;;;;;;;18.32;100.00;95638.19;4989810;28;20068;-71
2023/09/18 05:38:13;;;;;;;34.60;9.73;;;;;;;18.36;100.00;95632.47;4990816;28;20683;-71
2023/09/18 05:40:39;;;;;;;33.45;10.02;;;;;;;18.38;100.00;95623.25;4985164;28;20038;-74
2023/09/18 05:43:05;;;;;;;37.30;9.77;;;;;;;18.39;100.00;95634.72;4984620;28;20030;-74
2023/09/18 05:45:32;;;;;;;32.25;10.82;;;;;;;18.37;100.00;95634.94;4983883;28;20057;-73
2023/09/18 05:48:01;;;;;;;43.65;10.65;;;;;;;18.36;100.00;95629.78;4983797;28;20057;-70
2023/09/18 05:50:29;;;;;;;35.20;9.73;;;;;;;18.37;100.00;95621.63;4978920;28;20034;-72
2023/09/18 05:52:59;;;;;;;39.00;10.05;;;;;;;18.37;100.00;95626.09;4985270;28;20030;-73
2023/09/18 05:55:25;;;;;;;37.90;10.80;;;;;;;18.32;100.00;95635.50;4981775;28;20080;-71
2023/09/18 05:57:50;;;;;;;33.05;11.30;;;;;;;18.31;100.00;95633.84;4984548;28;20045;-72
2023/09/18 06:00:17;;;;;;;36.70;9.68;;;;;;;18.34;100.00;95627.31;4983839;28;20553;-74
2023/09/18 06:02:43;;;;;;;44.35;9.93;;;;;;;18.34;100.00;95621.97;4986196;28;20018;-77
2023/09/18 06:05:11;;;;;;;32.90;9.73;;;;;;;18.39;100.00;95630.25;4984544;28;20569;-73
2023/09/18 06:07:36;;;;;;;34.88;9.50;;;;;;;18.47;100.00;95637.28;4979829;28;20041;-72
2023/09/18 06:10:02;;;;;;;40.08;10.20;;;;;;;18.43;100.00;95639.50;4973556;28;20026;-72
2023/09/18 06:12:27;;;;;;;29.45;9.02;;;;;;;18.42;100.00;95642.34;4983676;28;20046;-71
2023/09/18 06:14:53;;;;;;;37.28;10.57;;;;;;;18.41;100.00;95643.34;4983471;28;20034;-71
2023/09/18 06:17:18;;;;;;;32.45;9.27;;;;;;;18.41;100.00;95635.34;4990385;28;20022;-70
2023/09/18 06:19:45;;;;;;;37.95;10.20;;;;;;;18.42;100.00;95640.50;4989338;28;20037;-71
2023/09/18 06:22:11;;;;;;;34.65;9.85;;;;;;;18.43;100.00;95636.81;4981292;28;20517;-71
2023/09/18 06:24:36;;;;;;;46.90;10.75;;;;;;;18.47;100.00;95630.09;4988290;28;20191;-71
2023/09/18 06:27:05;;;;;;;34.65;9.63;;;;;;;18.50;100.00;95620.91;4993003;28;20117;-71
2023/09/18 06:29:32;;;;;;;35.70;10.93;;;;;;;18.54;100.00;95615.97;4985570;28;20117;-71
2023/09/18 06:31:58;;;;;;;40.78;10.88;;;;;;;18.55;100.00;95629.13;4982911;28;20041;-71
2023/09/18 06:34:23;;;;;;;32.22;9.07;;;;;;;18.50;100.00;95628.88;4974917;28;20661;-71
2023/09/18 06:36:49;;;;;;;34.35;9.30;;;;;;;18.48;100.00;95628.25;4976732;28;20035;-70
2023/09/18 06:39:15;;;;;;;33.60;9.55;;;;;;;18.48;100.00;95622.94;4971229;28;20023;-70
2023/09/18 06:41:40;;;;;;;31.27;8.80;;;;;;;18.49;100.00;95608.59;4970100;28;20105;-70
2023/09/18 06:44:06;;;;;;;37.13;9.18;;;;;;;18.52;100.00;95612.69;4990101;28;20094;-70
2023/09/18 06:46:31;;;;;;;33.80;9.73;;;;;;;18.54;100.00;95616.81;4988221;28;20030;-71
2023/09/18 06:48:56;;;;;;;31.48;9.27;;;;;;;18.58;100.00;95604.75;4982849;28;20058;-70
2023/09/18 06:51:26;;;;;;;30.30;10.20;;;;;;;18.62;100.00;95605.19;4971827;28;20550;-71
2023/09/18 06:53:51;;;;;;;32.60;8.27;;;;;;;18.61;100.00;95625.69;4985222;28;20126;-71
2023/09/18 06:56:16;;;;;;;25.15;7.07;;;;;;;18.54;100.00;95654.13;4995430;28;20055;-71
2023/09/18 06:58:42;;;;;;;27.23;7.00;;;;;;;18.63;100.00;95660.16;4989188;28;20026;-71
2023/09/18 07:01:09;;;;;;;24.63;6.55;;;;;;;18.62;100.00;95650.50;4956832;28;20058;-71
2023/09/18 07:03:36;;;;;;;20.00;5.80;;;;;;;18.67;100.00;95673.91;4983778;28;20065;-71
2023/09/18 07:06:02;;;;;;;16.95;4.78;;;;;;;18.71;100.00;95672.53;4990647;28;20037;-71
2023/09/18 07:08:27;;;;;;;16.25;5.03;;;;;;;18.64;100.00;95684.97;4992481;28;20106;-70
2023/09/18 07:10:53;;;;;;;15.45;4.82;;;;;;;18.58;100.00;95695.38;4972558;28;20143;-71
2023/09/18 07:13:18;;;;;;;13.73;4.63;;;;;;;18.61;100.00;95676.34;4990583;28;20163;-71
2023/09/18 07:15:44;;;;;;;11.95;4.18;;;;;;;18.58;100.00;95684.72;4992381;28;20041;-70
2023/09/18 07:18:13;;;;;;;18.20;4.88;;;;;;;18.44;100.00;95688.28;4987410;28;20027;-70
2023/09/18 07:20:43;;;;;;;15.73;4.82;;;;;;;18.32;100.00;95664.81;4982154;28;20034;-70
2023/09/18 07:23:09;;;;;;;12.80;4.07;;;;;;;18.20;100.00;95652.22;4990049;28;20468;-70
2023/09/18 07:25:34;;;;;;;12.75;3.35;;;;;;;18.17;100.00;95653.41;4982130;28;20018;-70
2023/09/18 07:27:59;;;;;;;12.20;3.70;;;;;;;18.22;100.00;95672.28;4995143;28;20130;-69
2023/09/18 07:30:26;;;;;;;16.08;4.28;;;;;;;18.08;100.00;95691.84;4988993;28;20051;-68
2023/09/18 07:32:57;;;;;;;10.63;4.18;;;;;;;18.04;100.00;95692.22;4985445;28;20042;-68
2023/09/18 07:35:24;;;;;;;14.07;4.55;;;;;;;17.97;100.00;95701.94;4986701;28;20035;-68
2023/09/18 07:37:49;;;;;;;8.57;3.33;;;;;;;17.91;100.00;95721.34;4983582;28;20088;-68
2023/09/18 07:40:16;;;;;;;10.43;3.05;;;;;;;17.82;100.00;95725.13;4991164;28;20596;-68
2023/09/18 07:42:43;;;;;;;14.95;3.55;;;;;;;17.70;100.00;95746.91;4986349;28;20033;-68
2023/09/18 07:45:09;;;;;;;7.53;3.45;;;;;;;17.74;100.00;95753.50;4988841;28;20628;-68
2023/09/18 07:47:35;;;;;;;10.10;4.50;;;;;;;17.80;100.00;95769.75;4985299;28;20022;-68
2023/09/18 07:50:00;;;;;;;11.68;3.90;;;;;;;17.81;100.00;95766.09;4985215;28;20026;-69
2023/09/18 07:52:25;;;;;;;13.55;4.32;;;;;;;17.79;100.00;95752.94;4982426;28;20027;-69
2023/09/18 07:54:51;;;;;;;12.02;4.60;;;;;;;17.92;100.00;95736.31;4984415;28;20117;-69
2023/09/18 07:57:16;;;;;;;7.63;3.78;;;;;;;17.96;100.00;95715.47;4992945;28;20027;-69
2023/09/18 07:59:42;;;;;;;9.95;3.63;;;;;;;18.00;100.00;95698.88;4990303;28;20030;-69
2023/09/18 08:02:09;;;;;;;6.88;2.70;;;;;;;17.90;100.00;95706.38;4987746;28;20026;-69
2023/09/18 08:04:35;;;;;;;6.53;2.90;;;;;;;17.88;100.00;95703.06;4987439;28;20027;-70
2023/09/18 08:07:00;;;;;;;7.20;2.60;;;;;;;17.98;100.00;95694.78;4995067;28;20627;-69
2023/09/18 08:09:29;;;;;;;7.97;2.50;;;;;;;18.21;100.00;95691.97;4981761;28;20022;-70
2023/09/18 08:11:55;;;;;;;7.20;2.70;;;;;;;18.50;100.00;95694.69;4988575;28;20026;-69
2023/09/18 08:14:21;;;;;;;5.60;2.30;;;;;;;18.78;100.00;95691.22;4979198;28;20122;-70
2023/09/18 08:16:47;;;;;;;3.72;2.25;;;;;;;19.03;100.00;95688.97;4977692;28;20038;-70
2023/09/18 08:19:16;;;;;;;6.93;2.13;;;;;;;19.13;100.00;95683.28;4997493;28;20031;-69
2023/09/18 08:21:42;;;;;;;6.22;2.33;;;;;;;19.08;100.00;95697.22;4983014;28;20022;-70
2023/09/18 08:24:07;;;;;;;5.13;1.80;;;;;;;19.25;100.00;95702.25;4984591;28;20025;-69
2023/09/18 08:26:33;;;;;;;4.15;1.90;;;;;;;19.57;100.00;95706.09;4991040;28;20083;-70
2023/09/18 08:28:58;;;;;;;4.65;2.20;;;;;;;19.62;100.00;95694.84;4991316;28;20022;-70
2023/09/18 08:31:24;;;;;;;2.25;1.58;;;;;;;19.63;100.00;95699.16;4991887;28;20106;-71
2023/09/18 08:33:50;;;;;;;2.85;1.55;;;;;;;19.66;100.00;95717.44;4989460;28;20026;-70
2023/09/18 08:36:16;;;;;;;2.47;1.50;;;;;;;19.78;100.00;95738.22;4990647;28;20026;-70
2023/09/18 08:38:43;;;;;;;3.05;1.75;;;;;;;19.78;100.00;95743.56;4987030;28;20027;-70
2023/09/18 08:41:12;;;;;;;4.35;1.52;;;;;;;19.67;100.00;95748.47;4990700;28;20029;-69
2023/09/18 08:43:40;;;;;;;3.20;1.77;;;;;;;19.61;100.00;95749.28;4989861;28;20037;-70
2023/09/18 08:46:06;;;;;;;4.72;1.58;;;;;;;19.55;100.00;95753.53;4982908;28;20063;-70
2023/09/18 08:48:36;;;;;;;5.88;2.25;;;;;;;19.55;100.00;95750.03;4982900;28;20151;-70
2023/09/18 08:51:04;;;;;;;4.00;1.60;;;;;;;19.58;100.00;95763.03;4976717;28;20486;-70
2023/09/18 08:53:34;;;;;;;2.17;1.35;;;;;;;19.64;100.00;95764.91;4981827;28;20048;-70
2023/09/18 08:56:03;;;;;;;9.07;2.35;;;;;;;19.71;100.00;95757.72;4995423;28;20026;-70
2023/09/18 08:58:40;;;;;;;4.25;2.05;;;;;;;19.60;100.00;95753.78;4984366;28;20514;-70
2023/09/18 09:01:09;;;;;;;6.60;2.13;;;;;;;19.51;100.00;95764.81;4988562;28;20026;-70
2023/09/18 09:03:39;;;;;;;10.55;2.40;;;;;;;19.51;100.00;95762.13;4980799;28;20034;-70
2023/09/18 09:06:06;;;;;;;7.82;2.47;;;;;;;19.42;100.00;95756.97;4990901;28;20028;-70
2023/09/18 09:08:31;;;;;;;5.85;2.78;;;;;;;19.49;100.00;95756.19;4993865;28;20018;-70
2023/09/18 09:10:57;;;;;;;3.80;2.42;;;;;;;19.58;100.00;95752.34;4990312;28;20589;-70
2023/09/18 09:13:26;;;;;;;11.25;2.72;;;;;;;19.61;100.00;95754.59;4988559;28;20083;-70
2023/09/18 09:15:55;;;;;;;7.43;2.22;;;;;;;19.68;100.00;95774.16;4988810;28;20470;-70
2023/09/18 09:18:21;;;;;;;9.93;2.40;;;;;;;19.68;100.00;95782.16;4981321;28;20501;-70
2023/09/18 09:20:58;;;;;;;6.50;2.45;;;;;;;19.56;100.00;95773.88;4989522;28;20022;-70
2023/09/18 09:23:25;;;;;;;7.47;2.65;;;;;;;19.63;100.00;95781.09;4989187;28;20037;-70
2023/09/18 09:25:50;;;;;;;7.47;2.13;;;;;;;19.60;100.00;95793.81;4986812;28;20044;-71
2023/09/18 09:28:16;;;;;;;7.45;2.33;;;;;;;19.59;100.00;95794.03;4986427;28;20279;-70
2023/09/18 09:30:42;;;;;;;7.03;2.47;;;;;;;19.67;100.00;95780.53;4985193;28;20383;-70
2023/09/18 09:33:12;;;;;;;7.07;2.33;;;;;;;19.40;100.00;95785.69;4988756;28;20022;-70
2023/09/18 09:35:40;;;;;;;12.32;3.00;;;;;;;19.32;100.00;95784.00;4981400;28;20058;-69
2023/09/18 09:38:11;;;;;;;5.82;2.60;;;;;;;19.37;100.00;95777.25;4988874;28;20034;-70
2023/09/18 09:40:41;;;;;;;9.80;2.97;;;;;;;19.45;100.00;95777.09;4986907;28;20095;-69
2023/09/18 09:43:09;;;;;;;4.90;2.45;;;;;;;19.51;100.00;95770.16;4984728;28;20033;-70
2023/09/18 09:45:38;;;;;;;5.40;2.58;;;;;;;19.58;100.00;95757.69;5007848;28;20059;-69
2023/09/18 09:48:05;;;;;;;8.65;2.67;;;;;;;19.40;100.00;95763.50;4988113;28;20030;-69
2023/09/18 09:50:32;;;;;;;5.55;2.63;;;;;;;19.27;100.00;95783.78;4982310;28;20031;-68
2023/09/18 09:52:58;;;;;;;7.32;2.50;;;;;;;19.12;100.00;95762.53;4986336;28;20026;-68
2023/09/18 09:55:29;;;;;;;11.35;2.78;;;;;;;19.26;100.00;95763.44;4989876;28;20060;-69
2023/09/18 09:58:03;;;;;;;6.15;2.80;;;;;;;19.08;100.00;95765.75;4981853;28;20023;-69
2023/09/18 10:00:43;;;;;;;11.30;3.22;;;;;;;18.97;100.00;95746.56;4985179;28;20026;-68
2023/09/18 10:03:13;;;;;;;8.55;3.25;;;;;;;18.85;100.00;95751.59;4985590;28;20026;-69
2023/09/18 10:05:41;;;;;;;8.07;3.17;;;;;;;18.74;100.00;95757.47;4989846;28;20473;-69
2023/09/18 10:08:11;;;;;;;8.32;2.92;;;;;;;18.59;100.00;95769.00;4990563;28;20033;-68
2023/09/18 10:10:47;;;;;;;6.88;2.65;;;;;;;18.48;100.00;95758.88;4988561;28;20030;-68
2023/09/18 10:13:18;;;;;;;11.13;3.10;;;;;;;18.35;100.00;95753.41;4980519;28;20030;-70
2023/09/18 10:15:46;;;;;;;6.82;2.90;;;;;;;18.18;100.00;95751.81;4990837;28;20040;-69
2023/09/18 10:18:38;;;;;;;6.25;3.20;;;;;;;18.17;100.00;95750.16;4984206;28;20027;-69
2023/09/18 10:21:20;;;;;;;8.40;3.28;;;;;;;18.09;100.00;95754.75;4990726;28;20030;-69
2023/09/18 10:24:09;;;;;;;10.00;3.33;;;;;;;17.99;100.00;95755.84;4986755;28;20113;-69
2023/09/18 10:26:44;;;;;;;8.85;3.17;;;;;;;18.06;100.00;95753.28;4982483;28;20018;-70
2023/09/18 10:29:12;;;;;;;8.10;3.13;;;;;;;18.06;100.00;95750.63;4979185;28;20082;-70
2023/09/18 10:31:40;;;;;;;8.10;2.55;;;;;;;18.14;100.00;95747.03;4976057;28;20113;-70
2023/09/18 10:34:06;;;;;;;12.65;3.28;;;;;;;18.10;100.00;95743.09;4987299;28;20511;-69
2023/09/18 10:36:33;;;;;;;7.75;3.03;;;;;;;17.92;100.00;95754.94;4989273;28;20095;-70
2023/09/18 10:39:00;;;;;;;7.75;2.75;;;;;;;17.81;100.00;95777.53;4986262;28;20489;-68
2023/09/18 10:41:26;;;;;;;5.13;2.53;;;;;;;17.81;100.00;95792.72;4988475;28;20034;-68
2023/09/18 10:43:56;;;;;;;7.53;2.95;;;;;;;17.87;100.00;95786.63;4988944;28;20554;-68
2023/09/18 10:46:22;;;;;;;9.05;3.08;;;;;;;17.91;100.00;95758.63;4991972;28;20030;-68
2023/09/18 10:48:48;;;;;;;3.70;2.63;;;;;;;17.72;100.00;95739.53;4985528;28;20414;-68
2023/09/18 10:51:14;;;;;;;5.47;2.10;;;;;;;17.59;100.00;95731.41;4991328;28;20034;-71
2023/09/18 10:53:40;;;;;;;5.63;2.08;;;;;;;17.52;100.00;95735.78;4989991;28;20498;-70
2023/09/18 10:56:06;;;;;;;3.67;2.08;;;;;;;17.63;100.00;95739.81;4990503;28;20410;-71
2023/09/18 10:58:35;;;;;;;5.53;1.60;;;;;;;17.49;100.00;95742.34;4988981;28;20022;-70
2023/09/18 11:01:02;;;;;;;3.17;2.20;;;;;;;17.40;100.00;95735.44;4987453;28;20029;-70
2023/09/18 11:03:28;;;;;;;3.50;1.90;;;;;;;17.49;100.00;95733.50;4992021;28;20037;-70
2023/09/18 11:06:05;;;;;;;3.35;1.70;;;;;;;17.59;100.00;95742.06;4990327;28;20034;-70
2023/09/18 11:08:35;;;;;;;3.78;1.85;;;;;;;17.72;100.00;95762.69;4990980;28;20466;-70
2023/09/18 11:11:11;;;;;;;3.70;1.83;;;;;;;17.84;100.00;95765.72;4989478;28;20043;-70
2023/09/18 11:13:39;;;;;;;3.08;1.63;;;;;;;18.03;100.00;95782.97;4988155;28;20038;-70
2023/09/18 11:16:26;;;;;;;3.88;1.77;;;;;;;17.97;100.00;95779.16;4987733;28;20040;-70